createdAt,value
2018-08-16T00:00:57.043Z,58.50
2018-08-16T00:01:59.241Z,58.30
2018-08-16T00:03:01.559Z,58.50
2018-08-16T00:04:03.867Z,58.40
2018-08-16T00:05:06.121Z,58.50
2018-08-16T00:06:08.324Z,58.40
2018-08-16T00:07:10.546Z,58.50
2018-08-16T00:08:13.055Z,58.40
2018-08-16T00:09:15.301Z,58.40
2018-08-16T00:10:18.257Z,58.30
2018-08-16T00:11:20.490Z,58.40
2018-08-16T00:12:22.696Z,58.60
2018-08-16T00:13:24.893Z,58.70
2018-08-16T00:14:27.151Z,58.40
2018-08-16T00:15:29.333Z,59.20
2018-08-16T00:16:31.518Z,58.40
2018-08-16T00:17:33.753Z,58.60
2018-08-16T00:18:35.962Z,58.80
2018-08-16T00:19:38.706Z,58.80
2018-08-16T00:20:40.871Z,58.50
2018-08-16T00:21:43.107Z,58.60
2018-08-16T00:22:46.172Z,58.70
2018-08-16T00:23:48.383Z,58.70
2018-08-16T00:24:50.593Z,59.00
2018-08-16T00:25:52.798Z,59.00
2018-08-16T00:26:54.955Z,59.00
2018-08-16T00:27:57.214Z,58.90
2018-08-16T00:28:59.390Z,58.90
2018-08-16T00:30:01.629Z,58.90
2018-08-16T00:31:03.928Z,58.90
2018-08-16T00:32:06.184Z,58.90
2018-08-16T00:33:08.397Z,58.90
2018-08-16T00:34:10.594Z,59.00
2018-08-16T00:35:12.913Z,59.00
2018-08-16T00:36:15.078Z,58.90
2018-08-16T00:37:17.259Z,58.90
2018-08-16T00:38:19.458Z,58.80
2018-08-16T00:39:21.643Z,58.90
2018-08-16T00:40:26.756Z,58.90
2018-08-16T00:41:28.939Z,58.90
2018-08-16T00:42:33.940Z,58.60
2018-08-16T00:43:36.101Z,58.80
2018-08-16T00:44:38.298Z,58.60
2018-08-16T00:45:40.481Z,58.80
2018-08-16T00:46:42.682Z,59.00
2018-08-16T00:47:44.851Z,58.80
2018-08-16T00:48:47.037Z,59.10
2018-08-16T00:49:49.261Z,59.10
2018-08-16T00:50:51.446Z,59.20
2018-08-16T00:51:53.625Z,59.20
2018-08-16T00:52:55.799Z,59.20
2018-08-16T00:53:57.970Z,59.30
2018-08-16T00:55:00.440Z,59.40
2018-08-16T00:56:02.666Z,59.50
2018-08-16T00:57:04.869Z,59.40
2018-08-16T00:58:07.063Z,59.50
2018-08-16T00:59:09.245Z,59.50
2018-08-16T01:00:13.786Z,59.70
2018-08-16T01:01:15.986Z,59.70
2018-08-16T01:02:18.185Z,59.60
2018-08-16T01:03:20.416Z,59.80
2018-08-16T01:04:22.605Z,59.50
2018-08-16T01:05:24.785Z,59.60
2018-08-16T01:06:27.001Z,59.50
2018-08-16T01:07:29.239Z,59.70
2018-08-16T01:08:31.432Z,59.50
2018-08-16T01:09:33.599Z,59.50
2018-08-16T01:10:35.800Z,59.60
2018-08-16T01:11:37.960Z,59.60
2018-08-16T01:12:40.705Z,59.50
2018-08-16T01:13:42.894Z,59.50
2018-08-16T01:14:45.137Z,59.40
2018-08-16T01:15:47.333Z,59.50
2018-08-16T01:16:49.538Z,59.70
2018-08-16T01:17:51.710Z,59.60
2018-08-16T01:18:53.881Z,59.70
2018-08-16T01:19:56.077Z,59.70
2018-08-16T01:20:58.290Z,59.70
2018-08-16T01:22:00.466Z,59.90
2018-08-16T01:23:02.650Z,60.00
2018-08-16T01:24:04.853Z,60.00
2018-08-16T01:25:08.214Z,60.10
2018-08-16T01:26:10.401Z,60.30
2018-08-16T01:27:12.636Z,60.10
2018-08-16T01:28:14.810Z,60.20
2018-08-16T01:29:17.005Z,60.00
2018-08-16T01:30:19.213Z,60.30
2018-08-16T01:31:21.570Z,60.20
2018-08-16T01:32:23.762Z,60.30
2018-08-16T01:33:25.925Z,60.50
2018-08-16T01:34:28.120Z,60.30
2018-08-16T01:35:30.310Z,60.50
2018-08-16T01:36:32.494Z,60.70
2018-08-16T01:37:34.689Z,60.50
2018-08-16T01:38:36.846Z,60.50
2018-08-16T01:39:39.014Z,60.70
2018-08-16T01:40:41.165Z,60.70
2018-08-16T01:41:43.337Z,60.70
2018-08-16T01:42:45.485Z,60.80
2018-08-16T01:43:47.669Z,60.70
2018-08-16T01:44:49.822Z,60.80
2018-08-16T01:45:51.999Z,61.00
2018-08-16T01:46:54.171Z,61.10
2018-08-16T01:47:56.342Z,61.00
2018-08-16T01:48:58.791Z,61.50
2018-08-16T01:50:00.977Z,61.60
2018-08-16T01:51:03.183Z,61.50
2018-08-16T01:52:05.486Z,61.20
2018-08-16T01:53:07.818Z,61.20
2018-08-16T01:54:10.017Z,61.50
2018-08-16T01:55:12.177Z,61.30
2018-08-16T01:56:14.355Z,62.30
2018-08-16T01:57:16.546Z,61.40
2018-08-16T01:58:18.721Z,61.50
2018-08-16T01:59:20.926Z,61.40
2018-08-16T02:00:23.098Z,61.30
2018-08-16T02:01:25.278Z,61.40
2018-08-16T02:02:27.473Z,61.40
2018-08-16T02:03:29.720Z,61.30
2018-08-16T02:04:31.894Z,61.40
2018-08-16T02:05:34.097Z,61.30
2018-08-16T02:06:36.269Z,61.30
2018-08-16T02:07:38.443Z,61.30
2018-08-16T02:08:40.641Z,61.30
2018-08-16T02:09:42.816Z,61.50
2018-08-16T02:10:45.007Z,61.60
2018-08-16T02:11:47.185Z,61.70
2018-08-16T02:12:49.356Z,61.90
2018-08-16T02:13:51.544Z,61.80
2018-08-16T02:14:53.734Z,61.90
2018-08-16T02:15:55.897Z,62.10
2018-08-16T02:16:58.094Z,62.00
2018-08-16T02:18:00.305Z,62.10
2018-08-16T02:19:02.488Z,62.50
2018-08-16T02:20:05.854Z,62.40
2018-08-16T02:21:08.017Z,62.40
2018-08-16T02:22:10.193Z,62.60
2018-08-16T02:23:12.346Z,62.40
2018-08-16T02:24:14.524Z,62.30
2018-08-16T02:25:16.768Z,62.60
2018-08-16T02:26:18.947Z,62.70
2018-08-16T02:27:21.129Z,62.70
2018-08-16T02:28:23.993Z,62.70
2018-08-16T02:29:26.155Z,62.70
2018-08-16T02:30:28.343Z,62.70
2018-08-16T02:31:31.005Z,62.70
2018-08-16T02:32:33.249Z,62.70
2018-08-16T02:33:35.425Z,62.60
2018-08-16T02:34:37.664Z,62.60
2018-08-16T02:35:39.817Z,62.70
2018-08-16T02:36:41.994Z,62.60
2018-08-16T02:37:44.174Z,62.70
2018-08-16T02:38:46.321Z,63.20
2018-08-16T02:39:48.491Z,63.30
2018-08-16T02:40:50.658Z,63.20
2018-08-16T02:41:52.867Z,63.30
2018-08-16T02:42:55.051Z,63.30
2018-08-16T02:43:57.236Z,63.10
2018-08-16T02:44:59.428Z,63.00
2018-08-16T02:46:01.625Z,63.10
2018-08-16T02:47:03.806Z,63.20
2018-08-16T02:48:06.091Z,63.00
2018-08-16T02:49:08.262Z,63.10
2018-08-16T02:50:10.442Z,63.20
2018-08-16T02:51:12.690Z,63.30
2018-08-16T02:52:14.865Z,63.40
2018-08-16T02:53:17.097Z,63.60
2018-08-16T02:54:19.226Z,63.70
2018-08-16T02:55:21.353Z,63.50
2018-08-16T02:56:23.562Z,63.60
2018-08-16T02:57:25.753Z,63.40
2018-08-16T02:58:27.970Z,63.10
2018-08-16T02:59:30.150Z,63.20
2018-08-16T03:00:32.339Z,63.00
2018-08-16T03:01:34.518Z,63.00
2018-08-16T03:02:36.726Z,63.10
2018-08-16T03:03:38.885Z,63.10
2018-08-16T03:04:41.030Z,63.00
2018-08-16T03:05:43.182Z,63.10
2018-08-16T03:06:45.345Z,63.00
2018-08-16T03:07:47.499Z,63.00
2018-08-16T03:08:49.646Z,63.20
2018-08-16T03:09:51.802Z,63.40
2018-08-16T03:10:53.982Z,63.40
2018-08-16T03:11:56.140Z,63.40
2018-08-16T03:12:58.338Z,63.50
2018-08-16T03:14:00.497Z,63.80
2018-08-16T03:15:02.894Z,63.80
2018-08-16T03:16:05.259Z,63.80
2018-08-16T03:17:07.442Z,63.80
2018-08-16T03:18:09.707Z,63.80
2018-08-16T03:19:11.874Z,63.90
2018-08-16T03:20:14.057Z,64.10
2018-08-16T03:21:16.243Z,64.80
2018-08-16T03:22:18.372Z,64.00
2018-08-16T03:23:20.541Z,64.00
2018-08-16T03:24:22.706Z,63.80
2018-08-16T03:25:24.853Z,63.80
2018-08-16T03:26:27.021Z,63.80
2018-08-16T03:27:29.193Z,64.70
2018-08-16T03:28:31.349Z,64.00
2018-08-16T03:29:33.505Z,63.90
2018-08-16T03:30:35.674Z,63.80
2018-08-16T03:31:37.870Z,64.80
2018-08-16T03:32:40.029Z,63.90
2018-08-16T03:33:42.198Z,63.80
2018-08-16T03:34:44.345Z,64.00
2018-08-16T03:35:46.498Z,64.10
2018-08-16T03:36:48.668Z,63.90
2018-08-16T03:37:50.833Z,64.00
2018-08-16T03:38:53.058Z,63.80
2018-08-16T03:39:55.215Z,64.00
2018-08-16T03:40:57.358Z,63.80
2018-08-16T03:41:59.650Z,64.10
2018-08-16T03:43:01.805Z,64.30
2018-08-16T03:44:04.236Z,64.30
2018-08-16T03:45:07.169Z,64.30
2018-08-16T03:46:09.344Z,64.40
2018-08-16T03:47:11.506Z,64.30
2018-08-16T03:48:13.764Z,64.30
2018-08-16T03:49:15.878Z,64.10
2018-08-16T03:50:18.025Z,64.20
2018-08-16T03:51:20.163Z,64.20
2018-08-16T03:52:22.315Z,64.90
2018-08-16T03:53:24.473Z,64.50
2018-08-16T03:54:26.654Z,64.50
2018-08-16T03:55:28.901Z,64.30
2018-08-16T03:56:31.151Z,64.50
2018-08-16T03:57:33.369Z,64.30
2018-08-16T03:58:35.570Z,64.30
2018-08-16T03:59:37.716Z,64.50
2018-08-16T04:00:39.902Z,64.30
2018-08-16T04:01:42.075Z,64.60
2018-08-16T04:02:44.251Z,64.90
2018-08-16T04:03:46.415Z,64.70
2018-08-16T04:04:48.562Z,65.00
2018-08-16T04:05:50.733Z,64.70
2018-08-16T04:06:52.949Z,64.70
2018-08-16T04:07:55.106Z,64.70
2018-08-16T04:08:57.349Z,64.70
2018-08-16T04:09:59.518Z,64.70
2018-08-16T04:11:01.706Z,64.40
2018-08-16T04:12:04.382Z,64.50
2018-08-16T04:13:06.641Z,64.80
2018-08-16T04:14:08.805Z,64.90
2018-08-16T04:15:10.965Z,64.80
2018-08-16T04:16:13.150Z,65.00
2018-08-16T04:17:15.329Z,65.00
2018-08-16T04:18:17.472Z,64.90
2018-08-16T04:19:19.617Z,64.70
2018-08-16T04:20:21.780Z,64.90
2018-08-16T04:21:23.914Z,64.90
2018-08-16T04:22:26.102Z,64.90
2018-08-16T04:23:28.286Z,65.00
2018-08-16T04:24:30.504Z,65.00
2018-08-16T04:25:32.711Z,65.00
2018-08-16T04:26:34.881Z,65.30
2018-08-16T04:27:37.062Z,65.40
2018-08-16T04:28:39.210Z,65.40
2018-08-16T04:29:41.381Z,65.60
2018-08-16T04:30:43.590Z,65.40
2018-08-16T04:31:45.739Z,65.60
2018-08-16T04:32:47.891Z,65.60
2018-08-16T04:33:50.044Z,65.60
2018-08-16T04:34:52.214Z,66.50
2018-08-16T04:35:54.384Z,65.40
2018-08-16T04:36:56.545Z,65.70
2018-08-16T04:37:58.735Z,65.50
2018-08-16T04:39:00.885Z,65.40
2018-08-16T04:40:03.086Z,65.30
2018-08-16T04:41:05.762Z,65.20
2018-08-16T04:42:07.923Z,65.10
2018-08-16T04:43:10.076Z,65.10
2018-08-16T04:44:12.253Z,65.00
2018-08-16T04:45:14.448Z,64.90
2018-08-16T04:46:16.627Z,65.00
2018-08-16T04:47:18.789Z,65.80
2018-08-16T04:48:20.956Z,65.10
2018-08-16T04:49:23.128Z,65.10
2018-08-16T04:50:25.295Z,65.30
2018-08-16T04:51:27.458Z,65.30
2018-08-16T04:52:29.637Z,65.50
2018-08-16T04:53:31.815Z,65.50
2018-08-16T04:54:34.035Z,65.50
2018-08-16T04:55:36.225Z,65.70
2018-08-16T04:56:38.390Z,66.20
2018-08-16T04:57:40.540Z,66.30
2018-08-16T04:58:42.699Z,66.50
2018-08-16T04:59:44.854Z,66.50
2018-08-16T05:00:47.005Z,66.40
2018-08-16T05:01:49.248Z,66.50
2018-08-16T05:02:51.431Z,66.40
2018-08-16T05:03:53.582Z,66.40
2018-08-16T05:04:55.766Z,66.40
2018-08-16T05:05:57.948Z,66.40
2018-08-16T05:07:00.117Z,66.40
2018-08-16T05:08:02.257Z,66.40
2018-08-16T05:09:06.690Z,66.40
2018-08-16T05:10:09.620Z,66.50
2018-08-16T05:11:11.928Z,66.50
2018-08-16T05:12:14.038Z,66.60
2018-08-16T05:13:16.188Z,66.50
2018-08-16T05:14:18.334Z,65.90
2018-08-16T05:15:20.493Z,66.50
2018-08-16T05:16:22.686Z,66.50
2018-08-16T05:17:24.910Z,66.50
2018-08-16T05:18:27.041Z,66.50
2018-08-16T05:19:29.220Z,66.50
2018-08-16T05:20:31.377Z,66.60
2018-08-16T05:21:33.541Z,66.50
2018-08-16T05:22:35.755Z,66.50
2018-08-16T05:23:37.930Z,66.30
2018-08-16T05:24:40.075Z,66.50
2018-08-16T05:25:42.263Z,66.20
2018-08-16T05:26:44.451Z,66.30
2018-08-16T05:27:46.602Z,66.50
2018-08-16T05:28:48.803Z,66.40
2018-08-16T05:29:50.951Z,66.50
2018-08-16T05:30:53.101Z,66.60
2018-08-16T05:31:55.257Z,66.30
2018-08-16T05:32:57.451Z,66.30
2018-08-16T05:33:59.613Z,66.30
2018-08-16T05:35:01.802Z,66.10
2018-08-16T05:36:04.013Z,66.40
2018-08-16T05:37:06.169Z,65.90
2018-08-16T05:38:08.362Z,66.60
2018-08-16T05:39:11.662Z,65.90
2018-08-16T05:40:13.868Z,65.70
2018-08-16T05:41:16.028Z,65.50
2018-08-16T05:42:18.208Z,65.40
2018-08-16T05:43:20.420Z,65.20
2018-08-16T05:44:22.515Z,64.80
2018-08-16T05:45:24.706Z,64.90
2018-08-16T05:46:26.949Z,64.60
2018-08-16T05:47:29.144Z,64.50
2018-08-16T05:48:31.342Z,64.30
2018-08-16T05:49:33.497Z,63.90
2018-08-16T05:50:35.690Z,63.80
2018-08-16T05:51:37.914Z,63.70
2018-08-16T05:52:40.507Z,63.50
2018-08-16T05:53:42.681Z,63.50
2018-08-16T05:54:44.838Z,63.20
2018-08-16T05:55:46.988Z,62.90
2018-08-16T05:56:49.152Z,62.70
2018-08-16T05:57:51.310Z,62.80
2018-08-16T05:58:53.487Z,62.50
2018-08-16T05:59:55.694Z,63.30
2018-08-16T06:00:57.878Z,62.60
2018-08-16T06:02:00.100Z,62.30
2018-08-16T06:03:02.317Z,62.00
2018-08-16T06:04:04.506Z,61.80
2018-08-16T06:05:07.641Z,61.70
2018-08-16T06:06:09.859Z,61.60
2018-08-16T06:07:12.114Z,61.60
2018-08-16T06:08:14.318Z,61.50
2018-08-16T06:09:16.465Z,61.30
2018-08-16T06:10:18.649Z,61.60
2018-08-16T06:11:20.818Z,61.80
2018-08-16T06:12:23.020Z,61.70
2018-08-16T06:13:25.239Z,61.60
2018-08-16T06:14:27.447Z,61.50
2018-08-16T06:15:29.750Z,61.60
2018-08-16T06:16:31.870Z,61.60
2018-08-16T06:17:34.107Z,61.60
2018-08-16T06:18:36.297Z,61.30
2018-08-16T06:19:38.499Z,61.40
2018-08-16T06:20:40.686Z,61.50
2018-08-16T06:21:42.871Z,61.40
2018-08-16T06:22:45.028Z,61.20
2018-08-16T06:23:47.202Z,61.30
2018-08-16T06:24:49.393Z,61.40
2018-08-16T06:25:51.557Z,60.80
2018-08-16T06:26:53.734Z,61.30
2018-08-16T06:27:55.940Z,61.30
2018-08-16T06:28:58.142Z,61.40
2018-08-16T06:30:00.289Z,61.30
2018-08-16T06:31:02.525Z,61.30
2018-08-16T06:32:04.655Z,61.10
2018-08-16T06:33:06.871Z,61.00
2018-08-16T06:34:09.078Z,61.10
2018-08-16T06:35:11.384Z,61.20
2018-08-16T06:36:13.578Z,61.20
2018-08-16T06:37:15.796Z,61.00
2018-08-16T06:38:18.056Z,60.90
2018-08-16T06:39:20.228Z,60.90
2018-08-16T06:40:22.450Z,61.20
2018-08-16T06:41:24.652Z,61.10
2018-08-16T06:42:26.826Z,61.20
2018-08-16T06:43:29.000Z,61.20
2018-08-16T06:44:31.174Z,61.00
2018-08-16T06:45:33.386Z,61.00
2018-08-16T06:46:35.590Z,60.90
2018-08-16T06:47:37.821Z,60.80
2018-08-16T06:48:40.002Z,60.70
2018-08-16T06:49:42.566Z,60.50
2018-08-16T06:50:44.747Z,60.50
2018-08-16T06:51:46.952Z,60.60
2018-08-16T06:52:49.130Z,60.60
2018-08-16T06:53:51.331Z,60.40
2018-08-16T06:54:53.529Z,60.30
2018-08-16T06:55:55.707Z,60.30
2018-08-16T06:56:57.910Z,60.30
2018-08-16T06:58:00.075Z,60.30
2018-08-16T06:59:02.289Z,60.40
2018-08-16T07:00:05.032Z,60.10
2018-08-16T07:01:07.218Z,59.70
2018-08-16T07:02:09.427Z,59.60
2018-08-16T07:03:11.641Z,59.20
2018-08-16T07:04:13.861Z,59.30
2018-08-16T07:05:16.049Z,59.30
2018-08-16T07:06:18.212Z,59.40
2018-08-16T07:07:20.398Z,59.40
2018-08-16T07:08:22.646Z,59.40
2018-08-16T07:09:24.827Z,59.30
2018-08-16T07:11:36.201Z,58.80
2018-08-16T07:12:38.419Z,58.70
2018-08-16T07:13:40.614Z,59.00
2018-08-16T07:14:42.785Z,58.70
2018-08-16T07:15:44.943Z,58.80
2018-08-16T07:16:47.145Z,58.50
2018-08-16T07:17:49.287Z,58.60
2018-08-16T07:18:51.467Z,58.50
2018-08-16T07:19:53.642Z,58.60
2018-08-16T07:20:55.893Z,58.40
2018-08-16T07:21:58.085Z,58.40
2018-08-16T07:23:00.242Z,58.30
2018-08-16T07:24:02.432Z,58.30
2018-08-16T07:25:05.047Z,58.50
2018-08-16T07:26:07.428Z,58.40
2018-08-16T07:27:09.607Z,58.50
2018-08-16T07:28:11.776Z,58.10
2018-08-16T07:29:13.911Z,58.10
2018-08-16T07:30:16.070Z,58.00
2018-08-16T07:31:18.218Z,58.00
2018-08-16T07:32:20.402Z,57.90
2018-08-16T07:33:22.555Z,57.80
2018-08-16T07:34:24.726Z,58.00
2018-08-16T07:35:26.893Z,58.10
2018-08-16T07:36:29.047Z,58.10
2018-08-16T07:37:31.273Z,58.00
2018-08-16T07:38:33.438Z,57.90
2018-08-16T07:39:35.604Z,57.70
2018-08-16T07:40:37.817Z,57.60
2018-08-16T07:41:40.006Z,57.60
2018-08-16T07:42:42.161Z,57.60
2018-08-16T07:43:44.323Z,57.30
2018-08-16T07:44:46.511Z,56.90
2018-08-16T07:45:48.804Z,56.90
2018-08-16T07:46:50.844Z,56.90
2018-08-16T07:47:53.016Z,56.70
2018-08-16T07:48:55.205Z,56.40
2018-08-16T07:49:57.388Z,56.20
2018-08-16T07:50:59.593Z,56.30
2018-08-16T07:52:01.760Z,56.30
2018-08-16T07:53:03.953Z,56.10
2018-08-16T07:54:06.129Z,56.20
2018-08-16T07:55:09.150Z,56.20
2018-08-16T07:56:11.354Z,56.20
2018-08-16T07:57:13.544Z,56.20
2018-08-16T07:58:15.794Z,55.80
2018-08-16T07:59:17.942Z,55.70
2018-08-16T08:00:20.112Z,55.50
2018-08-16T08:01:22.280Z,55.50
2018-08-16T08:02:24.501Z,55.30
2018-08-16T08:03:26.715Z,55.30
2018-08-16T08:04:28.963Z,55.20
2018-08-16T08:05:31.170Z,55.20
2018-08-16T08:06:33.371Z,55.20
2018-08-16T08:07:35.541Z,54.80
2018-08-16T08:08:37.759Z,55.00
2018-08-16T08:09:39.958Z,54.70
2018-08-16T08:10:42.101Z,55.00
2018-08-16T08:11:44.293Z,54.50
2018-08-16T08:12:46.472Z,54.70
2018-08-16T08:13:48.621Z,54.60
2018-08-16T08:14:50.818Z,54.50
2018-08-16T08:15:53.083Z,54.40
2018-08-16T08:16:55.255Z,54.40
2018-08-16T08:17:57.463Z,54.20
2018-08-16T08:18:59.690Z,54.10
2018-08-16T08:20:01.936Z,53.80
2018-08-16T08:21:04.144Z,54.00
2018-08-16T08:22:06.367Z,53.90
2018-08-16T08:23:08.547Z,53.50
2018-08-16T08:24:10.745Z,52.80
2018-08-16T08:25:13.840Z,53.00
2018-08-16T08:26:16.055Z,52.80
2018-08-16T08:27:18.205Z,52.80
2018-08-16T08:28:20.398Z,52.20
2018-08-16T08:29:22.601Z,51.90
2018-08-16T08:30:24.795Z,51.90
2018-08-16T08:31:27.549Z,52.20
2018-08-16T08:32:29.749Z,52.00
2018-08-16T08:33:31.913Z,51.10
2018-08-16T08:34:34.071Z,51.20
2018-08-16T08:35:36.262Z,51.10
2018-08-16T08:36:50.009Z,51.40
2018-08-16T08:38:01.533Z,51.10
2018-08-16T08:39:06.175Z,51.00
2018-08-16T08:40:08.367Z,51.30
2018-08-16T08:41:10.553Z,51.20
2018-08-16T08:42:12.691Z,51.50
2018-08-16T08:43:27.528Z,51.10
2018-08-16T08:44:29.703Z,51.30
2018-08-16T08:45:31.889Z,51.40
2018-08-16T08:46:34.058Z,51.20
2018-08-16T08:47:41.932Z,51.10
2018-08-16T08:48:44.143Z,51.50
2018-08-16T08:49:46.312Z,51.30
2018-08-16T08:50:48.480Z,51.40
2018-08-16T08:51:51.777Z,50.70
2018-08-16T08:53:04.258Z,50.70
2018-08-16T08:54:50.150Z,51.00
2018-08-16T08:56:03.894Z,50.80
2018-08-16T08:57:17.467Z,51.00
2018-08-16T08:58:31.050Z,50.60
2018-08-16T08:59:33.203Z,51.30
2018-08-16T09:00:35.391Z,50.30
2018-08-16T09:01:37.603Z,50.40
2018-08-16T09:02:39.776Z,50.20
2018-08-16T09:03:41.940Z,50.20
2018-08-16T09:04:44.160Z,50.40
2018-08-16T09:05:46.335Z,50.30
2018-08-16T09:06:48.557Z,50.30
2018-08-16T09:07:50.653Z,49.60
2018-08-16T09:08:52.830Z,49.60
2018-08-16T09:11:18.110Z,49.80
2018-08-16T09:12:31.863Z,49.70
2018-08-16T09:13:45.582Z,49.20
2018-08-16T09:14:59.195Z,49.40
2018-08-16T09:16:04.200Z,49.60
2018-08-16T09:17:06.369Z,49.50
2018-08-16T09:18:08.542Z,49.50
2018-08-16T09:19:11.283Z,49.40
2018-08-16T09:20:13.479Z,49.20
2018-08-16T09:21:15.866Z,49.20
2018-08-16T09:22:18.120Z,48.80
2018-08-16T09:23:20.298Z,49.30
2018-08-16T09:24:22.492Z,49.30
2018-08-16T09:25:31.379Z,49.20
2018-08-16T09:26:39.398Z,49.00
2018-08-16T09:27:41.561Z,49.00
2018-08-16T09:28:43.730Z,48.90
2018-08-16T09:30:23.837Z,48.40
2018-08-16T09:31:37.489Z,49.00
2018-08-16T09:32:51.145Z,48.00
2018-08-16T09:34:04.665Z,48.60
2018-08-16T09:35:06.891Z,48.70
2018-08-16T09:36:09.058Z,48.20
2018-08-16T09:37:15.828Z,48.20
2018-08-16T09:38:17.992Z,48.20
2018-08-16T09:39:20.235Z,47.80
2018-08-16T09:40:22.521Z,47.80
2018-08-16T09:41:24.699Z,48.10
2018-08-16T09:42:26.885Z,48.10
2018-08-16T09:43:29.036Z,47.70
2018-08-16T09:44:31.218Z,47.70
2018-08-16T09:47:48.356Z,48.00
2018-08-16T09:48:50.557Z,47.90
2018-08-16T09:49:52.734Z,47.50
2018-08-16T09:50:54.894Z,46.90
2018-08-16T09:51:57.128Z,46.90
2018-08-16T09:52:59.290Z,46.10
2018-08-16T09:54:01.433Z,46.30
2018-08-16T09:55:03.663Z,46.50
2018-08-16T09:56:05.833Z,46.60
2018-08-16T09:57:09.026Z,46.60
2018-08-16T09:58:11.232Z,44.60
2018-08-16T09:59:13.468Z,44.90
2018-08-16T10:00:15.679Z,45.20
2018-08-16T10:01:17.847Z,45.30
2018-08-16T10:03:44.879Z,45.40
2018-08-16T10:04:47.055Z,45.30
2018-08-16T10:05:49.221Z,45.40
2018-08-16T10:06:51.500Z,45.40
2018-08-16T10:07:53.797Z,45.40
2018-08-16T10:08:56.496Z,44.70
2018-08-16T10:09:58.643Z,43.40
2018-08-16T10:11:00.791Z,42.70
2018-08-16T10:12:03.384Z,42.00
2018-08-16T10:13:06.034Z,42.00
2018-08-16T10:14:08.233Z,41.40
2018-08-16T10:15:10.418Z,41.90
2018-08-16T10:16:12.582Z,42.10
2018-08-16T10:17:14.734Z,42.70
2018-08-16T10:18:16.886Z,42.50
2018-08-16T10:19:19.385Z,42.40
2018-08-16T10:20:21.557Z,42.10
2018-08-16T10:21:23.745Z,42.10
2018-08-16T10:22:25.943Z,41.40
2018-08-16T10:23:28.093Z,42.50
2018-08-16T10:24:30.262Z,42.10
2018-08-16T10:25:32.439Z,43.00
2018-08-16T10:26:34.693Z,42.10
2018-08-16T10:27:36.918Z,41.20
2018-08-16T10:28:39.166Z,41.20
2018-08-16T10:29:41.330Z,42.10
2018-08-16T10:30:43.519Z,42.20
2018-08-16T10:31:45.691Z,41.20
2018-08-16T10:32:47.854Z,41.60
2018-08-16T10:33:50.006Z,41.80
2018-08-16T10:34:52.158Z,41.70
2018-08-16T10:35:54.301Z,41.30
2018-08-16T10:36:56.476Z,41.30
2018-08-16T10:37:58.613Z,41.30
2018-08-16T10:39:00.818Z,41.10
2018-08-16T10:40:03.081Z,41.40
2018-08-16T10:41:06.013Z,41.10
2018-08-16T10:42:08.162Z,41.40
2018-08-16T10:43:10.313Z,41.90
2018-08-16T10:44:13.198Z,40.30
2018-08-16T10:45:15.343Z,39.80
2018-08-16T10:46:17.588Z,40.60
2018-08-16T10:47:19.769Z,41.00
2018-08-16T10:48:21.967Z,40.70
2018-08-16T10:49:24.123Z,41.00
2018-08-16T10:50:26.286Z,40.70
2018-08-16T10:51:28.446Z,40.70
2018-08-16T10:52:30.617Z,40.60
2018-08-16T10:53:32.825Z,40.30
2018-08-16T10:54:34.997Z,40.60
2018-08-16T10:55:37.188Z,40.60
2018-08-16T10:56:39.348Z,40.70
2018-08-16T10:57:41.527Z,40.50
2018-08-16T10:58:43.721Z,40.20
2018-08-16T10:59:45.874Z,40.50
2018-08-16T11:00:48.073Z,40.30
2018-08-16T11:02:59.098Z,40.80
2018-08-16T11:04:01.275Z,39.40
2018-08-16T11:05:03.927Z,39.10
2018-08-16T11:06:06.127Z,38.90
2018-08-16T11:07:08.437Z,39.30
2018-08-16T11:08:10.613Z,39.70
2018-08-16T11:09:12.795Z,39.90
2018-08-16T11:10:14.966Z,39.80
2018-08-16T11:11:17.181Z,40.10
2018-08-16T11:12:19.326Z,40.00
2018-08-16T11:13:21.911Z,38.10
2018-08-16T11:14:24.062Z,38.70
2018-08-16T11:15:26.262Z,38.70
2018-08-16T11:16:28.426Z,38.40
2018-08-16T11:17:30.583Z,38.60
2018-08-16T11:18:32.742Z,37.80
2018-08-16T11:19:34.919Z,38.00
2018-08-16T11:20:37.262Z,37.50
2018-08-16T11:21:39.464Z,38.10
2018-08-16T11:22:41.610Z,39.00
2018-08-16T11:23:43.741Z,39.40
2018-08-16T11:24:45.873Z,38.50
2018-08-16T11:25:48.058Z,38.40
2018-08-16T11:26:50.243Z,37.40
2018-08-16T11:27:52.421Z,37.40
2018-08-16T11:28:54.610Z,37.40
2018-08-16T11:29:56.761Z,37.30
2018-08-16T11:30:58.948Z,37.30
2018-08-16T11:32:01.150Z,37.40
2018-08-16T11:33:03.352Z,37.40
2018-08-16T11:34:05.570Z,37.30
2018-08-16T11:35:07.816Z,37.40
2018-08-16T11:36:09.894Z,37.40
2018-08-16T11:37:12.038Z,37.50
2018-08-16T11:38:14.199Z,37.60
2018-08-16T11:39:16.384Z,37.40
2018-08-16T11:40:18.533Z,37.60
2018-08-16T11:41:20.735Z,37.60
2018-08-16T11:42:22.881Z,37.60
2018-08-16T11:43:25.090Z,37.70
2018-08-16T11:44:27.233Z,37.70
2018-08-16T11:45:29.394Z,37.70
2018-08-16T11:46:31.611Z,37.00
2018-08-16T11:47:33.761Z,37.70
2018-08-16T11:48:35.914Z,37.70
2018-08-16T11:49:38.094Z,37.10
2018-08-16T11:50:40.279Z,37.80
2018-08-16T11:51:42.445Z,37.80
2018-08-16T11:52:44.593Z,37.10
2018-08-16T11:53:46.794Z,36.50
2018-08-16T11:54:48.982Z,36.00
2018-08-16T11:55:51.150Z,36.30
2018-08-16T11:56:53.320Z,36.40
2018-08-16T11:57:55.496Z,36.30
2018-08-16T11:58:57.673Z,36.70
2018-08-16T11:59:59.889Z,36.50
2018-08-16T12:01:02.100Z,36.60
2018-08-16T12:02:04.357Z,35.50
2018-08-16T12:03:06.493Z,35.70
2018-08-16T12:04:08.640Z,36.00
2018-08-16T12:05:10.816Z,36.20
2018-08-16T12:06:13.001Z,36.70
2018-08-16T12:07:15.230Z,36.90
2018-08-16T12:08:17.377Z,36.80
2018-08-16T12:09:19.505Z,36.50
2018-08-16T12:10:21.674Z,36.10
2018-08-16T12:11:23.825Z,36.20
2018-08-16T12:12:26.016Z,36.10
2018-08-16T12:13:28.182Z,36.20
2018-08-16T12:14:30.386Z,35.70
2018-08-16T12:15:32.501Z,36.50
2018-08-16T12:16:34.802Z,36.40
2018-08-16T12:17:36.969Z,35.80
2018-08-16T12:18:39.154Z,35.80
2018-08-16T12:19:41.312Z,35.40
2018-08-16T12:20:43.498Z,35.10
2018-08-16T12:21:45.650Z,34.90
2018-08-16T12:22:47.862Z,34.70
2018-08-16T12:23:50.626Z,34.70
2018-08-16T12:24:52.790Z,35.10
2018-08-16T12:25:54.966Z,35.50
2018-08-16T12:26:57.149Z,35.60
2018-08-16T12:27:59.319Z,36.10
2018-08-16T12:29:01.514Z,35.50
2018-08-16T12:30:05.145Z,35.50
2018-08-16T12:31:07.437Z,34.60
2018-08-16T12:32:09.622Z,34.50
2018-08-16T12:33:11.779Z,35.00
2018-08-16T12:34:13.946Z,34.50
2018-08-16T12:35:16.123Z,34.50
2018-08-16T12:36:18.303Z,35.40
2018-08-16T12:37:20.479Z,34.80
2018-08-16T12:38:22.681Z,35.50
2018-08-16T12:39:24.890Z,34.10
2018-08-16T12:40:27.099Z,34.90
2018-08-16T12:41:29.255Z,34.80
2018-08-16T12:42:31.430Z,33.90
2018-08-16T12:43:35.029Z,34.40
2018-08-16T12:44:37.188Z,35.10
2018-08-16T12:45:39.359Z,34.40
2018-08-16T12:46:41.527Z,34.00
2018-08-16T12:47:43.844Z,34.30
2018-08-16T12:48:45.968Z,33.50
2018-08-16T12:49:48.098Z,34.00
2018-08-16T12:50:50.238Z,33.50
2018-08-16T12:51:52.398Z,34.10
2018-08-16T12:52:54.567Z,34.50
2018-08-16T12:53:56.717Z,34.00
2018-08-16T12:54:58.891Z,33.50
2018-08-16T12:56:01.069Z,34.10
2018-08-16T12:57:03.343Z,32.90
2018-08-16T12:58:05.541Z,32.90
2018-08-16T12:59:07.751Z,33.10
2018-08-16T13:00:13.498Z,33.00
2018-08-16T13:01:15.637Z,32.70
2018-08-16T13:02:17.826Z,33.60
2018-08-16T13:03:19.999Z,33.40
2018-08-16T13:04:22.238Z,33.20
2018-08-16T13:05:24.835Z,33.70
2018-08-16T13:06:26.997Z,32.40
2018-08-16T13:07:29.191Z,32.10
2018-08-16T13:08:31.366Z,32.40
2018-08-16T13:09:33.534Z,32.40
2018-08-16T13:10:35.746Z,31.90
2018-08-16T13:11:38.497Z,32.00
2018-08-16T13:12:40.714Z,31.40
2018-08-16T13:13:42.922Z,31.40
2018-08-16T13:14:45.078Z,31.30
2018-08-16T13:15:47.271Z,31.60
2018-08-16T13:16:49.434Z,31.70
2018-08-16T13:17:51.628Z,30.60
2018-08-16T13:18:53.801Z,30.40
2018-08-16T13:19:56.010Z,31.00
2018-08-16T13:20:58.201Z,30.80
2018-08-16T13:22:00.399Z,30.00
2018-08-16T13:23:02.562Z,31.40
2018-08-16T13:24:04.762Z,30.50
2018-08-16T13:25:07.477Z,30.10
2018-08-16T13:26:09.644Z,31.50
2018-08-16T13:27:11.857Z,30.10
2018-08-16T13:28:14.446Z,30.30
2018-08-16T13:29:16.590Z,30.70
2018-08-16T13:30:18.768Z,30.30
2018-08-16T13:31:21.057Z,30.30
2018-08-16T13:32:23.205Z,30.30
2018-08-16T13:33:25.487Z,29.80